sensor_id;sensor_type;location;lat;lon;timestamp;pressure;altitude;pressure_sealevel;temperature;humidity
74544;BME280;63016;55.030;38.710;2022-08-26T00:01:31;100628.81;;;16.87;51.98
74544;BME280;63016;55.030;38.710;2022-08-26T00:03:57;100631.03;;;16.83;52.02
74544;BME280;63016;55.030;38.710;2022-08-26T00:06:24;100621.88;;;16.79;52.06
74544;BME280;63016;55.030;38.710;2022-08-26T00:08:50;100630.13;;;16.76;51.97
74544;BME280;63016;55.030;38.710;2022-08-26T00:11:15;100633.16;;;16.73;52.26
74544;BME280;63016;55.030;38.710;2022-08-26T00:13:41;100636.31;;;16.68;52.10
74544;BME280;63016;55.030;38.710;2022-08-26T00:16:08;100641.75;;;16.67;52.13
74544;BME280;63016;55.030;38.710;2022-08-26T00:18:33;100641.97;;;16.65;52.60
74544;BME280;63016;55.030;38.710;2022-08-26T00:20:59;100631.78;;;16.62;52.10
74544;BME280;63016;55.030;38.710;2022-08-26T00:23:25;100642.53;;;16.61;52.14
74544;BME280;63016;55.030;38.710;2022-08-26T00:25:52;100636.19;;;16.55;52.31
74544;BME280;63016;55.030;38.710;2022-08-26T00:28:18;100646.06;;;16.53;51.85
74544;BME280;63016;55.030;38.710;2022-08-26T00:30:43;100648.44;;;16.48;52.23
74544;BME280;63016;55.030;38.710;2022-08-26T00:33:12;100651.47;;;16.45;52.11
74544;BME280;63016;55.030;38.710;2022-08-26T00:35:38;100657.91;;;16.42;51.91
74544;BME280;63016;55.030;38.710;2022-08-26T00:38:04;100650.56;;;16.38;52.42
74544;BME280;63016;55.030;38.710;2022-08-26T00:40:34;100657.19;;;16.34;52.12
74544;BME280;63016;55.030;38.710;2022-08-26T00:43:01;100659.22;;;16.32;52.28
74544;BME280;63016;55.030;38.710;2022-08-26T00:45:30;100662.38;;;16.27;52.66
74544;BME280;63016;55.030;38.710;2022-08-26T00:48:01;100669.66;;;16.25;51.79
74544;BME280;63016;55.030;38.710;2022-08-26T00:50:31;100672.84;;;16.21;51.77
74544;BME280;63016;55.030;38.710;2022-08-26T00:52:59;100668.94;;;16.16;52.16
74544;BME280;63016;55.030;38.710;2022-08-26T00:55:38;100671.94;;;16.13;52.23
74544;BME280;63016;55.030;38.710;2022-08-26T00:58:06;100668.84;;;16.10;52.33
74544;BME280;63016;55.030;38.710;2022-08-26T01:00:32;100659.50;;;16.07;52.66
74544;BME280;63016;55.030;38.710;2022-08-26T01:03:00;100665.41;;;16.09;52.15
74544;BME280;63016;55.030;38.710;2022-08-26T01:05:27;100670.66;;;16.09;52.98
74544;BME280;63016;55.030;38.710;2022-08-26T01:07:53;100667.06;;;16.10;52.89
74544;BME280;63016;55.030;38.710;2022-08-26T01:10:25;100673.13;;;16.11;52.62
74544;BME280;63016;55.030;38.710;2022-08-26T01:12:55;100666.59;;;16.07;52.37
74544;BME280;63016;55.030;38.710;2022-08-26T01:15:27;100659.25;;;16.02;52.50
74544;BME280;63016;55.030;38.710;2022-08-26T01:17:56;100664.84;;;15.99;53.09
74544;BME280;63016;55.030;38.710;2022-08-26T01:20:58;100669.13;;;16.00;51.04
74544;BME280;63016;55.030;38.710;2022-08-26T01:23:28;100659.50;;;15.92;52.61
74544;BME280;63016;55.030;38.710;2022-08-26T01:25:59;100658.84;;;15.90;52.64
74544;BME280;63016;55.030;38.710;2022-08-26T01:28:30;100664.31;;;15.89;52.23
74544;BME280;63016;55.030;38.710;2022-08-26T01:30:58;100659.44;;;15.86;52.50
74544;BME280;63016;55.030;38.710;2022-08-26T01:33:33;100662.69;;;15.88;52.63
74544;BME280;63016;55.030;38.710;2022-08-26T01:36:00;100657.78;;;15.85;52.93
74544;BME280;63016;55.030;38.710;2022-08-26T01:38:25;100651.69;;;15.84;52.82
74544;BME280;63016;55.030;38.710;2022-08-26T01:40:52;100657.78;;;15.85;53.50
74544;BME280;63016;55.030;38.710;2022-08-26T01:43:21;100648.25;;;15.84;52.71
74544;BME280;63016;55.030;38.710;2022-08-26T01:45:48;100652.50;;;15.85;53.42
74544;BME280;63016;55.030;38.710;2022-08-26T01:48:18;100649.25;;;15.83;53.26
74544;BME280;63016;55.030;38.710;2022-08-26T01:50:45;100651.69;;;15.84;53.91
74544;BME280;63016;55.030;38.710;2022-08-26T01:53:14;100648.25;;;15.84;53.10
74544;BME280;63016;55.030;38.710;2022-08-26T01:55:45;100658.16;;;15.82;53.50
74544;BME280;63016;55.030;38.710;2022-08-26T01:58:15;100659.13;;;15.81;53.43
74544;BME280;63016;55.030;38.710;2022-08-26T02:00:43;100653.25;;;15.79;53.46
74544;BME280;63016;55.030;38.710;2022-08-26T02:03:09;100651.16;;;15.74;53.01
74544;BME280;63016;55.030;38.710;2022-08-26T02:08:13;100656.69;;;15.64;53.49
74544;BME280;63016;55.030;38.710;2022-08-26T02:10:39;100656.19;;;15.61;53.06
74544;BME280;63016;55.030;38.710;2022-08-26T02:13:07;100660.00;;;15.58;53.28
74544;BME280;63016;55.030;38.710;2022-08-26T02:15:34;100660.00;;;15.58;53.29
74544;BME280;63016;55.030;38.710;2022-08-26T02:18:02;100663.63;;;15.57;53.35
74544;BME280;63016;55.030;38.710;2022-08-26T02:20:28;100655.91;;;15.56;53.35
74544;BME280;63016;55.030;38.710;2022-08-26T02:22:54;100661.53;;;15.53;53.21
74544;BME280;63016;55.030;38.710;2022-08-26T02:28:18;100661.78;;;15.43;53.15
74544;BME280;63016;55.030;38.710;2022-08-26T02:30:44;100660.50;;;15.39;53.42
74544;BME280;63016;55.030;38.710;2022-08-26T02:33:10;100665.78;;;15.39;53.89
74544;BME280;63016;55.030;38.710;2022-08-26T02:35:36;100667.59;;;15.38;53.61
74544;BME280;63016;55.030;38.710;2022-08-26T02:38:04;100673.00;;;15.37;53.85
74544;BME280;63016;55.030;38.710;2022-08-26T02:40:35;100667.94;;;15.35;53.21
74544;BME280;63016;55.030;38.710;2022-08-26T02:43:02;100670.38;;;15.37;53.56
74544;BME280;63016;55.030;38.710;2022-08-26T02:45:28;100669.56;;;15.36;53.79
74544;BME280;63016;55.030;38.710;2022-08-26T02:47:54;100670.56;;;15.35;53.48
74544;BME280;63016;55.030;38.710;2022-08-26T02:50:23;100670.56;;;15.35;53.75
74544;BME280;63016;55.030;38.710;2022-08-26T02:52:49;100677.63;;;15.35;54.05
74544;BME280;63016;55.030;38.710;2022-08-26T02:55:14;100670.75;;;15.34;54.04
74544;BME280;63016;55.030;38.710;2022-08-26T02:57:40;100669.75;;;15.35;54.13
74544;BME280;63016;55.030;38.710;2022-08-26T03:00:08;100677.00;;;15.33;54.07
74544;BME280;63016;55.030;38.710;2022-08-26T03:02:34;100674.38;;;15.33;54.41
74544;BME280;63016;55.030;38.710;2022-08-26T03:04:59;100677.00;;;15.33;54.47
74544;BME280;63016;55.030;38.710;2022-08-26T03:07:25;100677.44;;;15.36;54.62
74544;BME280;63016;55.030;38.710;2022-08-26T03:09:50;100678.91;;;15.39;54.83
74544;BME280;63016;55.030;38.710;2022-08-26T03:12:17;100683.00;;;15.41;54.84
74544;BME280;63016;55.030;38.710;2022-08-26T03:14:45;100673.94;;;15.44;55.01
74544;BME280;63016;55.030;38.710;2022-08-26T03:17:11;100673.56;;;15.47;55.18
74544;BME280;63016;55.030;38.710;2022-08-26T03:19:36;100676.50;;;15.52;55.34
74544;BME280;63016;55.030;38.710;2022-08-26T03:22:02;100680.38;;;15.56;55.75
74544;BME280;63016;55.030;38.710;2022-08-26T03:24:28;100676.41;;;15.60;55.31
74544;BME280;63016;55.030;38.710;2022-08-26T03:26:53;100675.75;;;15.66;55.62
74544;BME280;63016;55.030;38.710;2022-08-26T03:29:20;100678.66;;;15.72;55.84
74544;BME280;63016;55.030;38.710;2022-08-26T03:32:04;100679.56;;;15.79;55.94
74544;BME280;63016;55.030;38.710;2022-08-26T03:34:30;100685.91;;;15.84;56.43
74544;BME280;63016;55.030;38.710;2022-08-26T03:36:56;100688.00;;;15.89;56.54
74544;BME280;63016;55.030;38.710;2022-08-26T03:39:21;100687.47;;;15.93;56.60
74544;BME280;63016;55.030;38.710;2022-08-26T03:41:47;100692.00;;;16.00;56.69
74544;BME280;63016;55.030;38.710;2022-08-26T03:44:13;100685.38;;;16.04;56.74
74544;BME280;63016;55.030;38.710;2022-08-26T03:46:39;100685.47;;;16.10;57.41
74544;BME280;63016;55.030;38.710;2022-08-26T03:49:05;100685.56;;;16.17;57.47
74544;BME280;63016;55.030;38.710;2022-08-26T03:51:32;100682.19;;;16.23;57.59
74544;BME280;63016;55.030;38.710;2022-08-26T03:53:58;100668.94;;;16.31;57.40
74544;BME280;63016;55.030;38.710;2022-08-26T03:56:25;100679.78;;;16.43;57.32
74544;BME280;63016;55.030;38.710;2022-08-26T03:58:52;100676.88;;;16.53;57.59
74544;BME280;63016;55.030;38.710;2022-08-26T04:01:17;100681.84;;;16.62;57.89
74544;BME280;63016;55.030;38.710;2022-08-26T04:03:43;100684.03;;;16.74;57.88
74544;BME280;63016;55.030;38.710;2022-08-26T04:06:25;100682.94;;;16.83;58.16
74544;BME280;63016;55.030;38.710;2022-08-26T04:08:56;100685.44;;;16.91;57.78
74544;BME280;63016;55.030;38.710;2022-08-26T04:11:25;100692.84;;;17.02;57.80
74544;BME280;63016;55.030;38.710;2022-08-26T04:13:59;100690.31;;;17.15;57.98
74544;BME280;63016;55.030;38.710;2022-08-26T04:16:27;100686.19;;;17.28;58.22
74544;BME280;63016;55.030;38.710;2022-08-26T04:18:54;100684.66;;;17.40;58.77
74544;BME280;63016;55.030;38.710;2022-08-26T04:21:20;100681.31;;;17.53;58.63
74544;BME280;63016;55.030;38.710;2022-08-26T04:23:46;100682.22;;;17.66;58.64
74544;BME280;63016;55.030;38.710;2022-08-26T04:26:11;100682.34;;;17.80;58.86
74544;BME280;63016;55.030;38.710;2022-08-26T04:28:37;100686.72;;;17.94;58.83
74544;BME280;63016;55.030;38.710;2022-08-26T04:31:02;100687.41;;;18.09;58.76
74544;BME280;63016;55.030;38.710;2022-08-26T04:33:28;100682.78;;;18.24;58.82
74544;BME280;63016;55.030;38.710;2022-08-26T04:36:01;100686.91;;;18.40;58.44
74544;BME280;63016;55.030;38.710;2022-08-26T04:38:27;100687.78;;;18.54;59.31
74544;BME280;63016;55.030;38.710;2022-08-26T04:40:53;100688.66;;;18.68;59.25
74544;BME280;63016;55.030;38.710;2022-08-26T04:43:19;100686.91;;;18.82;59.36
74544;BME280;63016;55.030;38.710;2022-08-26T04:45:45;100689.16;;;18.98;59.19
74544;BME280;63016;55.030;38.710;2022-08-26T04:48:10;100690.00;;;19.12;59.23
74544;BME280;63016;55.030;38.710;2022-08-26T04:50:36;100681.25;;;19.24;59.08
74544;BME280;63016;55.030;38.710;2022-08-26T04:53:02;100687.16;;;19.40;59.26
74544;BME280;63016;55.030;38.710;2022-08-26T04:55:28;100678.56;;;19.58;59.37
74544;BME280;63016;55.030;38.710;2022-08-26T04:57:56;100684.72;;;19.71;58.91
74544;BME280;63016;55.030;38.710;2022-08-26T05:00:21;100678.19;;;19.87;59.12
74544;BME280;63016;55.030;38.710;2022-08-26T05:02:47;100683.44;;;20.07;58.89
74544;BME280;63016;55.030;38.710;2022-08-26T05:05:13;100684.16;;;20.21;57.86
74544;BME280;63016;55.030;38.710;2022-08-26T05:07:39;100686.59;;;20.36;58.12
74544;BME280;63016;55.030;38.710;2022-08-26T05:10:05;100688.16;;;20.50;58.17
74544;BME280;63016;55.030;38.710;2022-08-26T05:12:31;100697.25;;;20.67;58.36
74544;BME280;63016;55.030;38.710;2022-08-26T05:14:57;100687.34;;;20.88;58.37
74544;BME280;63016;55.030;38.710;2022-08-26T05:17:22;100693.16;;;21.03;57.76
74544;BME280;63016;55.030;38.710;2022-08-26T05:19:48;100689.59;;;21.16;57.49
74544;BME280;63016;55.030;38.710;2022-08-26T05:22:14;100679.50;;;21.31;57.62
74544;BME280;63016;55.030;38.710;2022-08-26T05:24:41;100679.63;;;21.43;57.35
74544;BME280;63016;55.030;38.710;2022-08-26T05:27:07;100691.78;;;21.57;57.55
74544;BME280;63016;55.030;38.710;2022-08-26T05:29:33;100689.72;;;21.77;57.22
74544;BME280;63016;55.030;38.710;2022-08-26T05:31:58;100698.16;;;21.93;57.23
74544;BME280;63016;55.030;38.710;2022-08-26T05:34:25;100697.97;;;22.13;57.11
74544;BME280;63016;55.030;38.710;2022-08-26T05:36:50;100694.94;;;22.27;56.79
74544;BME280;63016;55.030;38.710;2022-08-26T05:39:16;100703.69;;;22.46;57.45
74544;BME280;63016;55.030;38.710;2022-08-26T05:41:42;100699.16;;;22.65;57.42
74544;BME280;63016;55.030;38.710;2022-08-26T05:44:10;100701.78;;;22.83;56.68
74544;BME280;63016;55.030;38.710;2022-08-26T05:46:38;100696.44;;;23.02;56.75
74544;BME280;63016;55.030;38.710;2022-08-26T05:49:05;100692.84;;;23.20;56.37
74544;BME280;63016;55.030;38.710;2022-08-26T05:51:31;100701.31;;;23.40;56.25
74544;BME280;63016;55.030;38.710;2022-08-26T05:53:57;100706.00;;;23.56;56.45
74544;BME280;63016;55.030;38.710;2022-08-26T05:56:25;100706.22;;;23.78;56.98
74544;BME280;63016;55.030;38.710;2022-08-26T05:58:52;100701.38;;;23.99;55.61
74544;BME280;63016;55.030;38.710;2022-08-26T06:01:21;100699.81;;;24.15;54.92
74544;BME280;63016;55.030;38.710;2022-08-26T06:03:49;100702.78;;;24.30;54.69
74544;BME280;63016;55.030;38.710;2022-08-26T06:06:27;100710.41;;;24.50;54.66
74544;BME280;63016;55.030;38.710;2022-08-26T06:08:54;100701.88;;;24.65;54.67
74544;BME280;63016;55.030;38.710;2022-08-26T06:11:21;100699.50;;;24.80;54.57
74544;BME280;63016;55.030;38.710;2022-08-26T06:13:50;100703.00;;;24.97;53.19
74544;BME280;63016;55.030;38.710;2022-08-26T06:16:18;100703.53;;;25.11;53.05
74544;BME280;63016;55.030;38.710;2022-08-26T06:18:45;100698.19;;;25.28;52.87
74544;BME280;63016;55.030;38.710;2022-08-26T06:21:17;100696.88;;;25.47;52.95
74544;BME280;63016;55.030;38.710;2022-08-26T06:23:44;100699.56;;;25.64;52.92
74544;BME280;63016;55.030;38.710;2022-08-26T06:26:30;100694.44;;;25.79;51.79
74544;BME280;63016;55.030;38.710;2022-08-26T06:28:56;100691.16;;;25.94;51.32
74544;BME280;63016;55.030;38.710;2022-08-26T06:31:23;100706.28;;;26.05;51.85
74544;BME280;63016;55.030;38.710;2022-08-26T06:33:49;100703.25;;;26.19;50.47
74544;BME280;63016;55.030;38.710;2022-08-26T06:36:20;100711.16;;;26.30;50.15
74544;BME280;63016;55.030;38.710;2022-08-26T06:38:47;100713.69;;;26.42;52.70
74544;BME280;63016;55.030;38.710;2022-08-26T06:41:13;100707.19;;;26.55;50.11
74544;BME280;63016;55.030;38.710;2022-08-26T06:43:39;100707.28;;;26.65;50.42
74544;BME280;63016;55.030;38.710;2022-08-26T06:46:08;100706.31;;;26.76;50.19
74544;BME280;63016;55.030;38.710;2022-08-26T06:48:35;100700.78;;;26.88;50.30
74544;BME280;63016;55.030;38.710;2022-08-26T06:51:22;100702.75;;;26.98;50.43
74544;BME280;63016;55.030;38.710;2022-08-26T06:53:51;100705.34;;;27.14;50.74
74544;BME280;63016;55.030;38.710;2022-08-26T06:56:20;100705.72;;;27.28;49.87
74544;BME280;63016;55.030;38.710;2022-08-26T06:58:46;100702.84;;;27.40;49.27
74544;BME280;63016;55.030;38.710;2022-08-26T07:01:18;100701.06;;;27.56;48.93
74544;BME280;63016;55.030;38.710;2022-08-26T07:03:45;100704.88;;;27.65;48.33
74544;BME280;63016;55.030;38.710;2022-08-26T07:06:11;100701.28;;;27.81;49.09
74544;BME280;63016;55.030;38.710;2022-08-26T07:08:37;100698.38;;;27.93;48.51
74544;BME280;63016;55.030;38.710;2022-08-26T07:11:07;100694.41;;;28.06;47.72
74544;BME280;63016;55.030;38.710;2022-08-26T07:13:33;100693.09;;;28.18;47.84
74544;BME280;63016;55.030;38.710;2022-08-26T07:16:10;100693.97;;;28.29;47.70
74544;BME280;63016;55.030;38.710;2022-08-26T07:18:37;100683.28;;;28.39;46.94
74544;BME280;63016;55.030;38.710;2022-08-26T07:21:06;100684.91;;;28.51;47.61
74544;BME280;63016;55.030;38.710;2022-08-26T07:23:33;100693.56;;;28.68;46.69
74544;BME280;63016;55.030;38.710;2022-08-26T07:26:12;100700.53;;;28.79;46.99
74544;BME280;63016;55.030;38.710;2022-08-26T07:28:41;100694.91;;;28.91;46.16
74544;BME280;63016;55.030;38.710;2022-08-26T07:31:08;100690.91;;;28.99;46.27
74544;BME280;63016;55.030;38.710;2022-08-26T07:33:35;100690.13;;;29.08;47.17
74544;BME280;63016;55.030;38.710;2022-08-26T07:36:02;100696.00;;;29.15;45.68
74544;BME280;63016;55.030;38.710;2022-08-26T07:38:28;100696.56;;;29.23;45.28
74544;BME280;63016;55.030;38.710;2022-08-26T07:40:53;100688.75;;;29.31;45.52
74544;BME280;63016;55.030;38.710;2022-08-26T07:43:19;100687.66;;;29.42;45.38
74544;BME280;63016;55.030;38.710;2022-08-26T07:45:45;100692.75;;;29.54;45.63
74544;BME280;63016;55.030;38.710;2022-08-26T07:48:11;100689.78;;;29.66;45.41
74544;BME280;63016;55.030;38.710;2022-08-26T07:50:37;100688.44;;;29.79;44.94
74544;BME280;63016;55.030;38.710;2022-08-26T07:53:04;100690.28;;;29.88;45.04
74544;BME280;63016;55.030;38.710;2022-08-26T07:55:29;100679.72;;;29.97;44.98
74544;BME280;63016;55.030;38.710;2022-08-26T07:57:55;100686.69;;;30.08;44.65
74544;BME280;63016;55.030;38.710;2022-08-26T08:00:21;100684.25;;;30.17;44.04
74544;BME280;63016;55.030;38.710;2022-08-26T08:02:47;100682.06;;;30.24;44.39
74544;BME280;63016;55.030;38.710;2022-08-26T08:05:15;100685.00;;;30.33;44.03
74544;BME280;63016;55.030;38.710;2022-08-26T08:07:41;100680.63;;;30.42;43.34
74544;BME280;63016;55.030;38.710;2022-08-26T08:10:10;100679.22;;;30.50;42.98
74544;BME280;63016;55.030;38.710;2022-08-26T08:12:38;100680.25;;;30.59;43.08
74544;BME280;63016;55.030;38.710;2022-08-26T08:15:04;100680.44;;;30.67;42.48
74544;BME280;63016;55.030;38.710;2022-08-26T08:17:30;100680.75;;;30.71;42.16
74544;BME280;63016;55.030;38.710;2022-08-26T08:19:55;100680.16;;;30.74;42.52
74544;BME280;63016;55.030;38.710;2022-08-26T08:22:21;100680.13;;;30.79;42.60
74544;BME280;63016;55.030;38.710;2022-08-26T08:24:48;100677.63;;;30.88;42.89
74544;BME280;63016;55.030;38.710;2022-08-26T08:27:14;100672.44;;;30.96;42.18
74544;BME280;63016;55.030;38.710;2022-08-26T08:29:39;100674.25;;;31.06;42.65
74544;BME280;63016;55.030;38.710;2022-08-26T08:32:05;100670.94;;;31.14;42.08
74544;BME280;63016;55.030;38.710;2022-08-26T08:34:31;100668.16;;;31.25;41.91
74544;BME280;63016;55.030;38.710;2022-08-26T08:36:57;100671.06;;;31.33;41.58
74544;BME280;63016;55.030;38.710;2022-08-26T08:39:23;100661.25;;;31.42;41.08
74544;BME280;63016;55.030;38.710;2022-08-26T08:44:24;100668.16;;;31.54;41.36
74544;BME280;63016;55.030;38.710;2022-08-26T08:46:57;100669.69;;;31.60;41.79
74544;BME280;63016;55.030;38.710;2022-08-26T08:49:23;100668.84;;;31.64;40.18
74544;BME280;63016;55.030;38.710;2022-08-26T08:52:04;100659.31;;;31.72;42.11
74544;BME280;63016;55.030;38.710;2022-08-26T08:54:31;100655.72;;;31.77;40.19
74544;BME280;63016;55.030;38.710;2022-08-26T08:57:18;100662.97;;;31.81;43.27
74544;BME280;63016;55.030;38.710;2022-08-26T08:59:57;100666.53;;;31.82;41.44
74544;BME280;63016;55.030;38.710;2022-08-26T09:02:34;100662.47;;;31.79;40.29
74544;BME280;63016;55.030;38.710;2022-08-26T09:05:27;100657.56;;;31.81;41.01
74544;BME280;63016;55.030;38.710;2022-08-26T09:08:06;100652.72;;;31.83;40.64
74544;BME280;63016;55.030;38.710;2022-08-26T09:10:39;100658.88;;;31.89;40.56
74544;BME280;63016;55.030;38.710;2022-08-26T09:13:11;100646.91;;;31.95;40.00
74544;BME280;63016;55.030;38.710;2022-08-26T09:21:15;100650.56;;;32.23;39.32
74544;BME280;63016;55.030;38.710;2022-08-26T09:23:42;100651.84;;;32.31;38.41
74544;BME280;63016;55.030;38.710;2022-08-26T09:29:00;100649.81;;;32.41;39.65
74544;BME280;63016;55.030;38.710;2022-08-26T09:31:31;100642.44;;;32.47;38.81
74544;BME280;63016;55.030;38.710;2022-08-26T09:36:41;100645.19;;;32.61;39.03
74544;BME280;63016;55.030;38.710;2022-08-26T09:39:36;100651.53;;;32.70;41.33
74544;BME280;63016;55.030;38.710;2022-08-26T09:42:22;100644.34;;;32.79;41.21
74544;BME280;63016;55.030;38.710;2022-08-26T09:47:25;100646.44;;;32.82;37.46
74544;BME280;63016;55.030;38.710;2022-08-26T09:49:58;100649.16;;;32.82;38.51
74544;BME280;63016;55.030;38.710;2022-08-26T09:52:24;100643.66;;;32.87;37.35
74544;BME280;63016;55.030;38.710;2022-08-26T09:55:10;100647.63;;;32.95;39.09
74544;BME280;63016;55.030;38.710;2022-08-26T09:57:45;100643.44;;;33.03;38.55
74544;BME280;63016;55.030;38.710;2022-08-26T10:01:02;100639.25;;;33.10;41.03
74544;BME280;63016;55.030;38.710;2022-08-26T10:03:29;100636.84;;;33.09;37.37
74544;BME280;63016;55.030;38.710;2022-08-26T10:06:02;100637.94;;;33.08;37.33
74544;BME280;63016;55.030;38.710;2022-08-26T10:08:38;100640.66;;;33.08;37.12
74544;BME280;63016;55.030;38.710;2022-08-26T10:11:21;100645.16;;;33.12;37.95
74544;BME280;63016;55.030;38.710;2022-08-26T10:13:55;100644.25;;;33.17;36.79
74544;BME280;63016;55.030;38.710;2022-08-26T10:16:27;100640.47;;;33.18;37.23
74544;BME280;63016;55.030;38.710;2022-08-26T10:19:00;100640.38;;;33.23;36.76
74544;BME280;63016;55.030;38.710;2022-08-26T10:22:06;100633.25;;;33.27;39.36
74544;BME280;63016;55.030;38.710;2022-08-26T10:24:43;100622.03;;;33.34;37.01
74544;BME280;63016;55.030;38.710;2022-08-26T10:29:51;100627.03;;;33.40;36.52
74544;BME280;63016;55.030;38.710;2022-08-26T10:34:56;100623.66;;;33.48;35.37
74544;BME280;63016;55.030;38.710;2022-08-26T10:37:29;100620.56;;;33.55;36.01
74544;BME280;63016;55.030;38.710;2022-08-26T10:40:11;100618.38;;;33.57;37.47
74544;BME280;63016;55.030;38.710;2022-08-26T10:42:45;100619.47;;;33.56;35.75
74544;BME280;63016;55.030;38.710;2022-08-26T10:45:17;100618.06;;;33.59;35.17
74544;BME280;63016;55.030;38.710;2022-08-26T10:50:29;100602.34;;;33.61;35.20
74544;BME280;63016;55.030;38.710;2022-08-26T10:56:21;100603.19;;;33.70;34.52
74544;BME280;63016;55.030;38.710;2022-08-26T11:01:45;100598.09;;;33.68;34.75
74544;BME280;63016;55.030;38.710;2022-08-26T11:07:44;100601.41;;;33.65;36.92
74544;BME280;63016;55.030;38.710;2022-08-26T11:12:53;100588.00;;;33.46;34.52
74544;BME280;63016;55.030;38.710;2022-08-26T11:28:38;100566.63;;;33.59;36.08
74544;BME280;63016;55.030;38.710;2022-08-26T11:31:11;100562.22;;;33.63;33.61
74544;BME280;63016;55.030;38.710;2022-08-26T11:34:01;100575.97;;;33.66;36.01
74544;BME280;63016;55.030;38.710;2022-08-26T11:41:46;100560.88;;;33.74;33.73
74544;BME280;63016;55.030;38.710;2022-08-26T11:44:17;100567.09;;;33.74;33.41
74544;BME280;63016;55.030;38.710;2022-08-26T11:46:52;100558.06;;;33.79;34.04
74544;BME280;63016;55.030;38.710;2022-08-26T11:49:18;100557.16;;;33.84;33.31
74544;BME280;63016;55.030;38.710;2022-08-26T11:51:43;100554.97;;;33.86;32.41
74544;BME280;63016;55.030;38.710;2022-08-26T11:54:18;100568.66;;;33.89;33.47
74544;BME280;63016;55.030;38.710;2022-08-26T11:56:47;100554.66;;;33.87;32.65
74544;BME280;63016;55.030;38.710;2022-08-26T11:59:18;100560.06;;;33.87;32.71
74544;BME280;63016;55.030;38.710;2022-08-26T12:01:50;100555.56;;;33.83;33.15
74544;BME280;63016;55.030;38.710;2022-08-26T12:04:36;100549.78;;;33.75;34.81
74544;BME280;63016;55.030;38.710;2022-08-26T12:07:04;100549.78;;;33.75;31.62
74544;BME280;63016;55.030;38.710;2022-08-26T12:09:34;100554.47;;;33.70;31.51
74544;BME280;63016;55.030;38.710;2022-08-26T12:12:20;100556.69;;;33.68;34.37
74544;BME280;63016;55.030;38.710;2022-08-26T12:14:47;100546.38;;;33.70;31.82
74544;BME280;63016;55.030;38.710;2022-08-26T12:17:17;100558.59;;;33.67;33.09
74544;BME280;63016;55.030;38.710;2022-08-26T12:19:44;100551.28;;;33.68;31.81
74544;BME280;63016;55.030;38.710;2022-08-26T12:22:19;100557.31;;;33.65;33.48
74544;BME280;63016;55.030;38.710;2022-08-26T12:24:56;100552.88;;;33.69;33.60
74544;BME280;63016;55.030;38.710;2022-08-26T12:27:25;100547.19;;;33.70;32.54
74544;BME280;63016;55.030;38.710;2022-08-26T12:32:33;100555.34;;;33.57;31.49
74544;BME280;63016;55.030;38.710;2022-08-26T12:35:00;100548.72;;;33.49;32.43
74544;BME280;63016;55.030;38.710;2022-08-26T12:37:32;100546.91;;;33.44;32.96
74544;BME280;63016;55.030;38.710;2022-08-26T12:40:24;100556.16;;;33.43;34.48
74544;BME280;63016;55.030;38.710;2022-08-26T12:42:51;100558.91;;;33.38;33.15
74544;BME280;63016;55.030;38.710;2022-08-26T12:45:29;100553.81;;;33.37;33.60
74544;BME280;63016;55.030;38.710;2022-08-26T12:47:58;100552.50;;;33.34;33.93
74544;BME280;63016;55.030;38.710;2022-08-26T12:50:29;100555.69;;;33.36;33.91
74544;BME280;63016;55.030;38.710;2022-08-26T12:55:45;100548.22;;;33.33;34.94
74544;BME280;63016;55.030;38.710;2022-08-26T13:00:47;100543.50;;;33.25;34.96
74544;BME280;63016;55.030;38.710;2022-08-26T13:12:05;100531.41;;;33.22;33.77
74544;BME280;63016;55.030;38.710;2022-08-26T13:14:08;100533.31;;;33.22;34.02
74544;BME280;63016;55.030;38.710;2022-08-26T13:16:36;100528.47;;;33.19;34.46
74544;BME280;63016;55.030;38.710;2022-08-26T13:19:07;100525.88;;;33.14;35.22
74544;BME280;63016;55.030;38.710;2022-08-26T13:21:56;100520.25;;;33.10;35.14
74544;BME280;63016;55.030;38.710;2022-08-26T13:24:30;100521.16;;;33.06;35.98
74544;BME280;63016;55.030;38.710;2022-08-26T13:26:56;100521.84;;;32.97;36.01
74544;BME280;63016;55.030;38.710;2022-08-26T13:29:22;100525.50;;;32.93;36.89
74544;BME280;63016;55.030;38.710;2022-08-26T13:31:48;100521.03;;;32.83;36.72
74544;BME280;63016;55.030;38.710;2022-08-26T13:34:16;100513.63;;;32.75;36.85
74544;BME280;63016;55.030;38.710;2022-08-26T13:36:44;100521.59;;;32.66;36.78
74544;BME280;63016;55.030;38.710;2022-08-26T13:39:10;100512.09;;;32.55;36.98
74544;BME280;63016;55.030;38.710;2022-08-26T13:41:36;100521.16;;;32.45;37.56
74544;BME280;63016;55.030;38.710;2022-08-26T13:44:01;100513.22;;;32.35;38.11
74544;BME280;63016;55.030;38.710;2022-08-26T13:46:27;100510.38;;;32.27;38.40
74544;BME280;63016;55.030;38.710;2022-08-26T13:48:54;100519.94;;;32.19;38.67
74544;BME280;63016;55.030;38.710;2022-08-26T13:51:21;100512.53;;;32.11;38.72
74544;BME280;63016;55.030;38.710;2022-08-26T13:53:48;100507.78;;;32.03;38.84
74544;BME280;63016;55.030;38.710;2022-08-26T13:56:14;100510.56;;;31.97;39.79
74544;BME280;63016;55.030;38.710;2022-08-26T13:58:39;100504.59;;;31.82;39.14
74544;BME280;63016;55.030;38.710;2022-08-26T14:01:05;100514.41;;;31.72;39.12
74544;BME280;63016;55.030;38.710;2022-08-26T14:03:31;100506.75;;;31.61;39.38
74544;BME280;63016;55.030;38.710;2022-08-26T14:05:56;100511.47;;;31.50;39.55
74544;BME280;63016;55.030;38.710;2022-08-26T14:08:22;100504.56;;;31.44;40.12